createdAt,value
2022-10-08T00:00:14.043Z,0.00
2022-10-08T00:01:14.027Z,0.00
2022-10-08T00:02:14.037Z,0.00
2022-10-08T00:03:14.004Z,0.00
2022-10-08T00:04:14.049Z,0.00
2022-10-08T00:05:13.981Z,0.00
2022-10-08T00:06:13.964Z,0.00
2022-10-08T00:07:13.942Z,0.00
2022-10-08T00:08:13.932Z,0.00
2022-10-08T00:09:13.933Z,0.00
2022-10-08T00:10:13.907Z,0.00
2022-10-08T00:11:13.898Z,0.00
2022-10-08T00:12:13.883Z,0.00
2022-10-08T00:13:13.864Z,0.00
2022-10-08T00:14:13.883Z,0.00
2022-10-08T00:15:13.853Z,0.00
2022-10-08T00:16:13.859Z,0.00
2022-10-08T00:17:13.814Z,0.00
2022-10-08T00:18:13.804Z,0.00
2022-10-08T00:19:13.815Z,0.00
2022-10-08T00:20:13.782Z,0.00
2022-10-08T00:21:13.762Z,0.00
2022-10-08T00:22:13.745Z,0.00
2022-10-08T00:23:13.735Z,0.00
2022-10-08T00:24:13.747Z,0.00
2022-10-08T00:25:13.722Z,0.00
2022-10-08T00:26:13.695Z,0.00
2022-10-08T00:27:13.680Z,0.00
2022-10-08T00:28:13.741Z,0.00
2022-10-08T00:29:13.687Z,0.00
2022-10-08T00:30:13.645Z,0.00
2022-10-08T00:31:13.665Z,0.00
2022-10-08T00:32:13.623Z,0.00
2022-10-08T00:33:13.609Z,0.00
2022-10-08T00:34:13.607Z,0.00
2022-10-08T00:35:13.568Z,0.00
2022-10-08T00:36:13.560Z,0.00
2022-10-08T00:37:13.537Z,0.00
2022-10-08T00:38:13.547Z,0.00
2022-10-08T00:39:13.527Z,0.00
2022-10-08T00:40:13.499Z,0.00
2022-10-08T00:41:13.487Z,0.00
2022-10-08T00:42:13.479Z,0.00
2022-10-08T00:43:13.458Z,0.00
2022-10-08T00:44:13.473Z,0.00
2022-10-08T00:45:13.431Z,0.00
2022-10-08T00:46:13.456Z,0.00
2022-10-08T00:47:13.407Z,0.00
2022-10-08T00:48:13.397Z,0.00
2022-10-08T00:49:13.407Z,0.00
2022-10-08T00:50:13.366Z,0.00
2022-10-08T00:51:13.373Z,0.00
2022-10-08T00:52:13.341Z,0.00
2022-10-08T00:53:13.320Z,0.00
2022-10-08T00:54:13.338Z,0.00
2022-10-08T00:55:13.310Z,0.00
2022-10-08T00:56:13.312Z,0.00
2022-10-08T00:57:13.279Z,0.00
2022-10-08T00:58:13.279Z,0.00
2022-10-08T00:59:13.271Z,0.00
2022-10-08T01:00:13.239Z,0.00
2022-10-08T01:01:13.277Z,0.00
2022-10-08T01:02:13.278Z,0.00
2022-10-08T01:03:13.192Z,0.00
2022-10-08T01:04:13.190Z,0.00
2022-10-08T01:05:13.183Z,0.00
2022-10-08T01:06:13.153Z,0.00
2022-10-08T01:07:13.132Z,0.00
2022-10-08T01:08:13.122Z,0.00
2022-10-08T01:09:17.954Z,0.00
2022-10-08T01:10:14.102Z,0.00
2022-10-08T01:11:13.080Z,0.00
2022-10-08T01:12:13.092Z,0.00
2022-10-08T01:13:13.058Z,0.00
2022-10-08T01:14:13.072Z,0.00
2022-10-08T01:15:13.023Z,0.00
2022-10-08T01:16:13.059Z,0.00
2022-10-08T01:17:13.031Z,0.00
2022-10-08T01:18:12.994Z,0.00
2022-10-08T01:19:13.067Z,0.00
2022-10-08T01:20:12.977Z,0.00
2022-10-08T01:21:12.962Z,0.00
2022-10-08T01:22:12.943Z,0.00
2022-10-08T01:23:12.925Z,0.00
2022-10-08T01:24:12.941Z,0.00
2022-10-08T01:25:12.902Z,0.00
2022-10-08T01:26:12.893Z,0.00
2022-10-08T01:27:12.883Z,0.00
2022-10-08T01:28:12.937Z,0.00
2022-10-08T01:29:12.863Z,0.00
2022-10-08T01:30:12.846Z,0.00
2022-10-08T01:31:12.899Z,0.00
2022-10-08T01:32:12.824Z,0.00
2022-10-08T01:33:12.795Z,0.00
2022-10-08T01:34:12.834Z,0.00
2022-10-08T01:35:12.763Z,0.00
2022-10-08T01:36:12.754Z,0.00
2022-10-08T01:37:12.734Z,0.00
2022-10-08T01:38:12.744Z,0.00
2022-10-08T01:39:12.734Z,0.00
2022-10-08T01:40:12.724Z,0.00
2022-10-08T01:41:12.684Z,0.00
2022-10-08T01:42:12.676Z,0.00
2022-10-08T01:43:12.655Z,0.00
2022-10-08T01:44:12.665Z,0.00
2022-10-08T01:45:12.633Z,0.00
2022-10-08T01:46:12.667Z,0.00
2022-10-08T01:47:12.604Z,0.00
2022-10-08T01:48:12.603Z,0.00
2022-10-08T01:49:12.596Z,0.00
2022-10-08T01:50:12.567Z,0.00
2022-10-08T01:51:12.566Z,0.00
2022-10-08T01:52:12.550Z,0.00
2022-10-08T01:53:12.534Z,0.00
2022-10-08T01:54:12.535Z,0.00
2022-10-08T01:55:12.500Z,0.00
2022-10-08T01:56:12.487Z,0.00
2022-10-08T01:57:12.474Z,0.00
2022-10-08T01:58:12.467Z,0.00
2022-10-08T01:59:12.458Z,0.00
2022-10-08T02:00:12.459Z,0.00
2022-10-08T02:01:12.477Z,0.00
2022-10-08T02:02:12.492Z,0.00
2022-10-08T02:03:12.398Z,0.00
2022-10-08T02:04:12.398Z,0.00
2022-10-08T02:05:12.370Z,0.00
2022-10-08T02:06:12.348Z,0.00
2022-10-08T02:07:12.337Z,0.00
2022-10-08T02:08:12.327Z,0.00
2022-10-08T02:09:12.338Z,0.00
2022-10-08T02:10:12.319Z,0.00
2022-10-08T02:11:12.288Z,0.00
2022-10-08T02:12:12.281Z,0.00
2022-10-08T02:13:12.278Z,0.00
2022-10-08T02:14:12.258Z,0.00
2022-10-08T02:15:12.247Z,0.00
2022-10-08T02:16:12.251Z,0.00
2022-10-08T02:17:12.199Z,0.00
2022-10-08T02:18:12.199Z,0.00
2022-10-08T02:19:12.191Z,0.00
2022-10-08T02:20:12.169Z,0.00
2022-10-08T02:21:12.150Z,0.00
2022-10-08T02:22:12.155Z,0.00
2022-10-08T02:23:12.153Z,0.00
2022-10-08T02:24:12.145Z,0.00
2022-10-08T02:25:12.129Z,0.00
2022-10-08T02:26:12.119Z,0.00
2022-10-08T02:27:12.072Z,0.00
2022-10-08T02:28:12.130Z,0.00
2022-10-08T02:29:12.062Z,0.00
2022-10-08T02:30:12.036Z,0.00
2022-10-08T02:31:12.015Z,0.00
2022-10-08T02:32:12.061Z,0.00
2022-10-08T02:33:11.980Z,0.00
2022-10-08T02:34:12.002Z,0.00
2022-10-08T02:35:11.954Z,0.00
2022-10-08T02:36:11.953Z,0.00
2022-10-08T02:37:11.954Z,0.00
2022-10-08T02:38:11.921Z,0.00
2022-10-08T02:39:11.943Z,0.00
2022-10-08T02:40:11.902Z,0.00
2022-10-08T02:41:11.885Z,0.00
2022-10-08T02:42:11.894Z,0.00
2022-10-08T02:43:11.860Z,0.00
2022-10-08T02:44:11.853Z,0.00
2022-10-08T02:45:11.822Z,0.00
2022-10-08T02:46:11.868Z,0.00
2022-10-08T02:47:11.800Z,0.00
2022-10-08T02:48:11.783Z,0.00
2022-10-08T02:49:11.793Z,0.00
2022-10-08T02:50:11.763Z,0.00
2022-10-08T02:51:11.746Z,0.00
2022-10-08T02:52:11.763Z,0.00
2022-10-08T02:53:11.733Z,0.00
2022-10-08T02:54:11.723Z,0.00
2022-10-08T02:55:11.684Z,0.00
2022-10-08T02:56:11.692Z,0.00
2022-10-08T02:57:11.682Z,0.00
2022-10-08T02:58:11.654Z,0.00
2022-10-08T02:59:11.653Z,0.00
2022-10-08T03:00:11.627Z,0.00
2022-10-08T03:01:11.698Z,0.00
2022-10-08T03:02:11.661Z,0.00
2022-10-08T03:03:11.612Z,0.00
2022-10-08T03:04:11.599Z,0.00
2022-10-08T03:05:11.556Z,0.00
2022-10-08T03:06:11.546Z,0.00
2022-10-08T03:07:11.525Z,0.00
2022-10-08T03:08:11.548Z,0.00
2022-10-08T03:09:11.520Z,0.00
2022-10-08T03:10:11.495Z,0.00
2022-10-08T03:11:11.487Z,0.00
2022-10-08T03:12:11.467Z,0.00
2022-10-08T03:13:11.456Z,0.00
2022-10-08T03:14:11.467Z,0.00
2022-10-08T03:15:11.419Z,0.00
2022-10-08T03:16:11.464Z,0.00
2022-10-08T03:17:11.395Z,0.00
2022-10-08T03:18:11.393Z,0.00
2022-10-08T03:19:11.406Z,0.00
2022-10-08T03:20:11.369Z,0.00
2022-10-08T03:21:11.335Z,0.00
2022-10-08T03:22:11.327Z,0.00
2022-10-08T03:23:11.321Z,0.00
2022-10-08T03:24:11.319Z,0.00
2022-10-08T03:25:11.280Z,0.00
2022-10-08T03:26:11.277Z,0.00
2022-10-08T03:27:11.298Z,0.00
2022-10-08T03:28:11.329Z,0.00
2022-10-08T03:29:11.247Z,0.00
2022-10-08T03:30:11.237Z,0.00
2022-10-08T03:31:11.235Z,0.00
2022-10-08T03:32:11.191Z,0.00
2022-10-08T03:33:11.179Z,0.00
2022-10-08T03:34:11.179Z,0.00
2022-10-08T03:35:11.170Z,0.00
2022-10-08T03:36:11.149Z,0.00
2022-10-08T03:37:11.129Z,0.00
2022-10-08T03:38:11.146Z,0.00
2022-10-08T03:39:11.119Z,0.00
2022-10-08T03:40:11.087Z,0.00
2022-10-08T03:41:11.091Z,0.00
2022-10-08T03:42:11.051Z,0.00
2022-10-08T03:43:11.062Z,0.00
2022-10-08T03:44:11.050Z,0.00
2022-10-08T03:45:11.032Z,0.00
2022-10-08T03:46:11.055Z,0.00
2022-10-08T03:47:10.992Z,0.00
2022-10-08T03:48:10.973Z,0.00
2022-10-08T03:49:10.998Z,0.00
2022-10-08T03:50:10.953Z,0.00
2022-10-08T03:51:11.608Z,0.00
2022-10-08T03:52:10.923Z,0.00
2022-10-08T03:53:10.913Z,0.00
2022-10-08T03:54:10.911Z,0.00
2022-10-08T03:55:10.921Z,0.00
2022-10-08T03:56:10.874Z,0.00
2022-10-08T03:57:10.861Z,0.00
2022-10-08T03:58:10.861Z,0.00
2022-10-08T03:59:10.851Z,0.00
2022-10-08T04:00:10.843Z,0.00
2022-10-08T04:01:10.885Z,0.00
2022-10-08T04:02:10.832Z,0.00
2022-10-08T04:03:10.783Z,0.00
2022-10-08T04:04:10.793Z,0.00
2022-10-08T04:05:10.753Z,0.00
2022-10-08T04:06:10.745Z,0.00
2022-10-08T04:07:10.732Z,0.00
2022-10-08T04:08:10.714Z,0.00
2022-10-08T04:09:10.727Z,0.00
2022-10-08T04:10:10.708Z,0.00
2022-10-08T04:11:10.681Z,0.00
2022-10-08T04:12:10.774Z,0.00
2022-10-08T04:13:10.667Z,0.00
2022-10-08T04:14:10.875Z,0.00
2022-10-08T04:15:10.703Z,0.00
2022-10-08T04:16:10.747Z,0.00
2022-10-08T04:17:10.597Z,0.00
2022-10-08T04:18:10.614Z,0.00
2022-10-08T04:19:10.646Z,0.00
2022-10-08T04:20:10.548Z,0.00
2022-10-08T04:21:10.545Z,0.00
2022-10-08T04:22:10.524Z,0.00
2022-10-08T04:23:10.519Z,0.00
2022-10-08T04:24:10.508Z,0.00
2022-10-08T04:25:10.507Z,0.00
2022-10-08T04:26:10.479Z,0.00
2022-10-08T04:27:10.457Z,0.00
2022-10-08T04:28:10.488Z,0.00
2022-10-08T04:29:10.467Z,0.00
2022-10-08T04:30:10.417Z,0.00
2022-10-08T04:31:10.725Z,0.00
2022-10-08T04:32:10.399Z,0.00
2022-10-08T04:33:10.379Z,0.00
2022-10-08T04:34:10.395Z,0.00
2022-10-08T04:35:10.377Z,0.00
2022-10-08T04:36:10.336Z,0.00
2022-10-08T04:37:10.328Z,0.00
2022-10-08T04:38:10.321Z,0.00
2022-10-08T04:39:10.339Z,0.00
2022-10-08T04:40:10.279Z,0.00
2022-10-08T04:41:10.268Z,0.00
2022-10-08T04:42:10.259Z,0.00
2022-10-08T04:43:10.471Z,0.00
2022-10-08T04:44:10.250Z,0.00
2022-10-08T04:45:10.235Z,0.00
2022-10-08T04:46:10.310Z,0.00
2022-10-08T04:47:10.189Z,0.00
2022-10-08T04:48:10.190Z,0.00
2022-10-08T04:49:10.290Z,0.00
2022-10-08T04:50:10.143Z,0.00
2022-10-08T04:51:10.914Z,0.00
2022-10-08T04:52:10.140Z,0.00
2022-10-08T04:53:10.121Z,0.00
2022-10-08T04:54:10.112Z,0.00
2022-10-08T04:55:10.089Z,0.00
2022-10-08T04:56:10.069Z,0.00
2022-10-08T04:57:10.061Z,0.00
2022-10-08T04:58:10.064Z,0.00
2022-10-08T04:59:10.041Z,0.00
2022-10-08T05:00:18.839Z,0.00
2022-10-08T05:01:11.074Z,0.00
2022-10-08T05:02:09.982Z,0.00
2022-10-08T05:03:10.007Z,0.00
2022-10-08T05:04:09.968Z,0.00
2022-10-08T05:05:09.958Z,0.00
2022-10-08T05:06:09.933Z,0.00
2022-10-08T05:07:09.925Z,0.00
2022-10-08T05:08:09.897Z,0.00
2022-10-08T05:09:10.019Z,0.00
2022-10-08T05:10:09.908Z,0.00
2022-10-08T05:11:09.966Z,0.00
2022-10-08T05:12:09.936Z,0.00
2022-10-08T05:13:09.836Z,0.00
2022-10-08T05:14:09.846Z,0.00
2022-10-08T05:15:09.827Z,0.00
2022-10-08T05:16:09.876Z,0.00
2022-10-08T05:17:09.794Z,0.00
2022-10-08T05:18:09.775Z,0.00
2022-10-08T05:19:09.779Z,0.00
2022-10-08T05:20:09.747Z,0.00
2022-10-08T05:21:09.739Z,0.00
2022-10-08T05:22:09.726Z,0.00
2022-10-08T05:23:09.722Z,0.00
2022-10-08T05:24:09.706Z,0.00
2022-10-08T05:25:09.677Z,4.00
2022-10-08T05:26:09.719Z,0.00
2022-10-08T05:27:09.656Z,4.00
2022-10-08T05:28:09.679Z,4.00
2022-10-08T05:29:09.639Z,4.00
2022-10-08T05:30:09.624Z,4.00
2022-10-08T05:31:09.667Z,8.00
2022-10-08T05:32:09.581Z,4.00
2022-10-08T05:33:09.600Z,8.00
2022-10-08T05:34:09.568Z,12.00
2022-10-08T05:35:09.542Z,12.00
2022-10-08T05:36:09.529Z,12.00
2022-10-08T05:37:09.519Z,16.00
2022-10-08T05:38:09.549Z,16.00
2022-10-08T05:39:09.512Z,16.00
2022-10-08T05:40:09.522Z,16.00
2022-10-08T05:41:09.470Z,20.00
2022-10-08T05:42:09.450Z,20.00
2022-10-08T05:43:09.440Z,24.00
2022-10-08T05:44:09.441Z,24.00
2022-10-08T05:45:09.494Z,24.00
2022-10-08T05:46:09.437Z,32.00
2022-10-08T05:47:09.383Z,32.00
2022-10-08T05:48:09.546Z,28.00
2022-10-08T05:49:09.397Z,32.00
2022-10-08T05:50:09.342Z,32.00
2022-10-08T05:51:09.331Z,32.00
2022-10-08T05:52:09.321Z,28.00
2022-10-08T05:53:09.426Z,28.00
2022-10-08T05:54:09.281Z,36.00
2022-10-08T05:55:09.304Z,44.00
2022-10-08T05:56:09.260Z,52.00
2022-10-08T05:57:09.252Z,60.00
2022-10-08T05:58:09.232Z,72.00
2022-10-08T05:59:09.222Z,80.00
2022-10-08T06:00:09.224Z,100.00
2022-10-08T06:01:09.204Z,120.00
2022-10-08T06:02:09.193Z,132.00
2022-10-08T06:03:09.179Z,148.00
2022-10-08T06:04:09.291Z,156.00
2022-10-08T06:05:09.244Z,156.00
2022-10-08T06:06:09.144Z,172.00
2022-10-08T06:07:09.115Z,204.00
2022-10-08T06:08:09.123Z,228.00
2022-10-08T06:09:09.093Z,248.00
2022-10-08T06:10:09.098Z,256.00
2022-10-08T06:11:09.070Z,264.00
2022-10-08T06:12:09.045Z,260.00
2022-10-08T06:13:09.052Z,252.00
2022-10-08T06:14:09.015Z,260.00
2022-10-08T06:15:09.076Z,272.00
2022-10-08T06:16:09.063Z,284.00
2022-10-08T06:17:08.984Z,300.00
2022-10-08T06:18:08.967Z,320.00
2022-10-08T06:19:09.403Z,320.00
2022-10-08T06:20:08.953Z,296.00
2022-10-08T06:21:08.937Z,272.00
2022-10-08T06:22:08.915Z,228.00
2022-10-08T06:23:08.903Z,240.00
2022-10-08T06:24:08.895Z,260.00
2022-10-08T06:25:08.898Z,268.00
2022-10-08T06:26:08.857Z,288.00
2022-10-08T06:27:08.848Z,320.00
2022-10-08T06:28:08.864Z,292.00
2022-10-08T06:29:08.826Z,328.00
2022-10-08T06:30:08.826Z,304.00
2022-10-08T06:31:08.874Z,300.00
2022-10-08T06:32:08.780Z,276.00
2022-10-08T06:33:08.768Z,300.00
2022-10-08T06:34:08.748Z,296.00
2022-10-08T06:35:08.785Z,268.00
2022-10-08T06:36:08.732Z,228.00
2022-10-08T06:37:08.708Z,276.00
2022-10-08T06:38:08.699Z,260.00
2022-10-08T06:39:08.689Z,232.00
2022-10-08T06:40:08.727Z,252.00
2022-10-08T06:41:08.668Z,224.00
2022-10-08T06:42:08.658Z,264.00
2022-10-08T06:43:08.639Z,260.00
2022-10-08T06:44:08.620Z,328.00
2022-10-08T06:45:08.658Z,428.00
2022-10-08T06:46:08.607Z,740.00
2022-10-08T06:47:08.600Z,816.00
2022-10-08T06:48:08.583Z,800.00
2022-10-08T06:49:08.570Z,720.00
2022-10-08T06:50:08.561Z,604.00
2022-10-08T06:51:08.555Z,484.00
2022-10-08T06:52:08.523Z,532.00
2022-10-08T06:53:08.520Z,688.00
2022-10-08T06:54:08.905Z,592.00
2022-10-08T06:55:08.493Z,352.00
2022-10-08T06:56:08.460Z,384.00
2022-10-08T06:57:08.456Z,372.00
2022-10-08T06:58:08.432Z,428.00
2022-10-08T06:59:08.431Z,492.00
2022-10-08T07:00:08.422Z,612.00
2022-10-08T07:01:08.448Z,916.00
2022-10-08T07:02:08.401Z,940.00
2022-10-08T07:03:08.372Z,880.00
2022-10-08T07:04:08.370Z,632.00
2022-10-08T07:05:08.387Z,680.00
2022-10-08T07:06:08.325Z,640.00
2022-10-08T07:07:08.341Z,640.00
2022-10-08T07:08:08.301Z,456.00
2022-10-08T07:09:08.305Z,340.00
2022-10-08T07:10:08.293Z,336.00
2022-10-08T07:11:08.260Z,340.00
2022-10-08T07:12:08.243Z,280.00
2022-10-08T07:13:08.244Z,300.00
2022-10-08T07:14:08.232Z,312.00
2022-10-08T07:15:08.267Z,360.00
2022-10-08T07:16:08.242Z,360.00
2022-10-08T07:17:08.202Z,708.00
2022-10-08T07:18:08.174Z,648.00
2022-10-08T07:19:08.163Z,408.00
2022-10-08T07:20:08.164Z,416.00
2022-10-08T07:21:08.160Z,456.00
2022-10-08T07:22:08.125Z,612.00
2022-10-08T07:23:08.108Z,660.00
2022-10-08T07:24:08.087Z,844.00
2022-10-08T07:25:08.095Z,924.00
2022-10-08T07:26:08.065Z,736.00
2022-10-08T07:27:08.054Z,652.00
2022-10-08T07:28:08.072Z,1132.00
2022-10-08T07:29:08.024Z,1204.00
2022-10-08T07:30:08.016Z,1072.00
2022-10-08T07:31:08.054Z,1008.00
2022-10-08T07:32:07.984Z,1716.00
2022-10-08T07:33:07.977Z,1516.00
2022-10-08T07:34:07.974Z,1388.00
2022-10-08T07:35:07.964Z,1320.00
2022-10-08T07:36:07.947Z,2544.00
2022-10-08T07:37:07.954Z,988.00
2022-10-08T07:38:07.905Z,920.00
2022-10-08T07:39:07.909Z,1052.00
2022-10-08T07:40:07.876Z,1276.00
2022-10-08T07:41:07.872Z,1312.00
2022-10-08T07:42:07.868Z,672.00
2022-10-08T07:43:07.838Z,860.00
2022-10-08T07:44:07.836Z,1448.00
2022-10-08T07:45:07.810Z,1564.00
2022-10-08T07:46:07.835Z,1324.00
2022-10-08T07:47:07.798Z,1584.00
2022-10-08T07:48:07.779Z,1244.00
2022-10-08T07:49:07.801Z,1564.00
2022-10-08T07:50:07.785Z,1804.00
2022-10-08T07:51:07.721Z,2064.00
2022-10-08T07:52:07.720Z,1904.00
2022-10-08T07:53:07.702Z,2064.00
2022-10-08T07:54:07.715Z,1596.00
2022-10-08T07:55:07.680Z,1956.00
2022-10-08T07:56:07.672Z,1464.00
2022-10-08T07:57:07.643Z,1204.00
2022-10-08T07:58:07.632Z,1576.00
2022-10-08T07:59:07.643Z,1764.00
2022-10-08T08:00:07.633Z,1060.00
2022-10-08T08:01:07.666Z,1632.00
2022-10-08T08:02:07.623Z,1340.00
2022-10-08T08:03:07.596Z,1468.00
2022-10-08T08:04:07.577Z,1136.00
2022-10-08T08:05:07.542Z,1228.00
2022-10-08T08:06:07.524Z,1600.00
2022-10-08T08:07:07.514Z,1360.00
2022-10-08T08:08:07.505Z,1072.00
2022-10-08T08:09:07.497Z,1088.00
2022-10-08T08:10:07.475Z,1216.00
2022-10-08T08:11:07.465Z,1148.00
2022-10-08T08:12:07.453Z,1208.00
2022-10-08T08:13:07.455Z,1480.00
2022-10-08T08:14:07.481Z,1428.00
2022-10-08T08:15:07.430Z,2480.00
2022-10-08T08:16:07.455Z,1836.00
2022-10-08T08:17:07.376Z,2088.00
2022-10-08T08:18:07.368Z,3156.00
2022-10-08T08:19:07.372Z,2224.00
2022-10-08T08:20:07.346Z,1716.00
2022-10-08T08:21:07.327Z,2464.00
2022-10-08T08:22:07.319Z,2820.00
2022-10-08T08:23:07.302Z,2028.00
2022-10-08T08:24:07.313Z,1420.00
2022-10-08T08:25:07.279Z,2196.00
2022-10-08T08:26:07.266Z,2404.00
2022-10-08T08:27:07.249Z,2948.00
2022-10-08T08:28:07.271Z,2856.00
2022-10-08T08:29:07.239Z,2704.00
2022-10-08T08:30:07.210Z,2620.00
2022-10-08T08:31:07.200Z,2284.00
2022-10-08T08:32:07.250Z,2668.00
2022-10-08T08:33:07.172Z,2336.00
2022-10-08T08:34:07.222Z,2120.00
2022-10-08T08:35:07.140Z,2600.00
2022-10-08T08:36:07.153Z,2132.00
2022-10-08T08:37:07.110Z,2072.00
2022-10-08T08:38:07.122Z,1684.00
2022-10-08T08:39:07.103Z,2572.00
2022-10-08T08:40:07.082Z,1760.00
2022-10-08T08:41:11.853Z,1496.00
2022-10-08T08:42:08.052Z,1488.00
2022-10-08T08:43:07.038Z,1384.00
2022-10-08T08:44:07.060Z,1484.00
2022-10-08T08:45:07.116Z,1268.00
2022-10-08T08:46:07.062Z,1492.00
2022-10-08T08:47:06.982Z,1732.00
2022-10-08T08:48:06.972Z,2208.00
2022-10-08T08:49:06.983Z,1860.00
2022-10-08T08:50:06.959Z,2088.00
2022-10-08T08:51:06.931Z,2504.00
2022-10-08T08:52:06.922Z,2176.00
2022-10-08T08:53:06.906Z,2580.00
2022-10-08T08:54:06.901Z,2288.00
2022-10-08T08:55:06.874Z,1772.00
2022-10-08T08:56:06.877Z,1760.00
2022-10-08T08:57:06.844Z,1872.00
2022-10-08T08:58:10.773Z,2512.00
2022-10-08T08:59:06.844Z,2804.00
2022-10-08T09:00:06.826Z,2732.00
2022-10-08T09:01:06.812Z,4140.00
2022-10-08T09:02:06.785Z,2188.00
2022-10-08T09:03:06.765Z,2624.00
2022-10-08T09:04:06.785Z,3408.00
2022-10-08T09:05:06.802Z,3968.00
2022-10-08T09:06:06.766Z,3308.00
2022-10-08T09:07:06.716Z,4084.00
2022-10-08T09:08:06.705Z,1576.00
2022-10-08T09:09:06.687Z,1220.00
2022-10-08T09:10:06.712Z,1436.00
2022-10-08T09:11:06.668Z,2136.00
2022-10-08T09:12:06.667Z,3284.00
2022-10-08T09:13:06.656Z,3388.00
2022-10-08T09:14:06.658Z,3560.00
2022-10-08T09:15:06.616Z,2776.00
2022-10-08T09:16:06.614Z,2056.00
2022-10-08T09:17:06.666Z,1996.00
2022-10-08T09:18:06.582Z,2308.00
2022-10-08T09:19:06.565Z,2632.00
2022-10-08T09:20:06.559Z,2608.00
2022-10-08T09:21:06.528Z,3324.00
2022-10-08T09:22:06.528Z,4412.00
2022-10-08T09:23:06.502Z,5360.00
2022-10-08T09:24:06.531Z,5012.00
2022-10-08T09:25:06.471Z,5432.00
2022-10-08T09:26:06.474Z,4536.00
2022-10-08T09:27:06.449Z,4320.00
2022-10-08T09:28:06.465Z,3696.00
2022-10-08T09:29:06.433Z,3588.00
2022-10-08T09:30:06.403Z,2468.00
2022-10-08T09:31:08.893Z,3296.00
2022-10-08T09:32:06.410Z,4520.00
2022-10-08T09:33:06.376Z,5280.00
2022-10-08T09:34:06.373Z,3844.00
2022-10-08T09:35:06.343Z,2588.00
2022-10-08T09:36:06.331Z,1900.00
2022-10-08T09:37:06.325Z,1952.00
2022-10-08T09:38:06.428Z,2260.00
2022-10-08T09:39:06.323Z,2500.00
2022-10-08T09:40:06.294Z,2812.00
2022-10-08T09:41:06.272Z,2632.00
2022-10-08T09:42:06.273Z,2320.00
2022-10-08T09:43:06.233Z,1972.00
2022-10-08T09:44:06.243Z,2068.00
2022-10-08T09:45:06.208Z,1748.00
2022-10-08T09:46:06.237Z,1624.00
2022-10-08T09:47:06.184Z,1864.00
2022-10-08T09:48:06.174Z,2148.00
2022-10-08T09:49:06.188Z,2288.00
2022-10-08T09:50:06.185Z,2340.00
2022-10-08T09:51:06.138Z,2376.00
2022-10-08T09:53:02.994Z,2144.00
2022-10-08T09:54:02.984Z,2200.00
2022-10-08T09:55:02.954Z,2312.00
2022-10-08T09:56:02.953Z,2508.00
2022-10-08T09:57:02.942Z,2788.00
2022-10-08T09:58:02.916Z,3580.00
2022-10-08T09:59:02.925Z,4508.00
2022-10-08T10:00:02.888Z,3560.00
2022-10-08T10:01:02.927Z,3380.00
2022-10-08T10:02:02.889Z,3052.00
2022-10-08T10:03:02.859Z,3652.00
2022-10-08T10:04:02.931Z,4832.00
2022-10-08T10:05:02.827Z,6300.00
2022-10-08T10:06:02.818Z,6348.00
2022-10-08T10:07:02.797Z,4444.00
2022-10-08T10:08:02.788Z,4568.00
2022-10-08T10:09:02.790Z,6164.00
2022-10-08T10:10:02.778Z,6672.00
2022-10-08T10:11:02.738Z,5876.00
2022-10-08T10:12:02.728Z,4492.00
2022-10-08T10:13:02.711Z,5012.00
2022-10-08T10:14:02.739Z,4300.00
2022-10-08T10:15:02.734Z,4264.00
2022-10-08T10:16:02.679Z,5812.00
2022-10-08T10:17:02.741Z,7604.00
2022-10-08T10:18:02.652Z,6064.00
2022-10-08T10:19:02.659Z,5048.00
2022-10-08T10:20:02.640Z,3832.00
2022-10-08T10:21:02.620Z,2852.00
2022-10-08T10:22:02.619Z,3036.00
2022-10-08T10:23:02.592Z,4108.00
2022-10-08T10:24:02.611Z,3912.00
2022-10-08T10:25:02.552Z,3512.00
2022-10-08T10:26:06.348Z,3856.00
2022-10-08T10:27:02.522Z,4932.00
2022-10-08T10:28:02.595Z,5492.00
2022-10-08T10:29:02.533Z,6068.00
2022-10-08T10:30:02.492Z,6064.00
2022-10-08T10:31:02.494Z,5576.00
2022-10-08T10:32:02.464Z,6644.00
2022-10-08T10:33:02.454Z,5448.00
2022-10-08T10:34:02.451Z,5512.00
2022-10-08T10:35:02.413Z,4812.00
2022-10-08T10:36:02.428Z,5864.00
2022-10-08T10:37:02.387Z,6940.00
2022-10-08T10:38:02.396Z,7476.00
2022-10-08T10:39:02.375Z,5960.00
2022-10-08T10:40:02.354Z,5872.00
2022-10-08T10:41:02.328Z,6912.00
2022-10-08T10:42:02.329Z,6692.00
2022-10-08T10:43:02.315Z,6676.00
2022-10-08T10:44:02.313Z,7312.00
2022-10-08T10:45:02.292Z,5732.00
2022-10-08T10:46:02.314Z,5648.00
2022-10-08T10:47:02.257Z,4176.00
2022-10-08T10:48:02.238Z,2716.00
2022-10-08T10:49:02.237Z,1968.00
2022-10-08T10:50:02.215Z,1356.00
2022-10-08T10:51:02.199Z,1156.00
2022-10-08T10:52:02.205Z,1132.00
2022-10-08T10:53:02.168Z,1128.00
2022-10-08T10:54:02.179Z,1212.00
2022-10-08T10:55:02.148Z,1088.00
2022-10-08T10:56:02.136Z,1140.00
2022-10-08T10:57:02.118Z,1436.00
2022-10-08T10:58:02.116Z,1588.00
2022-10-08T10:59:02.107Z,1832.00
2022-10-08T11:00:02.084Z,2596.00
2022-10-08T11:01:02.157Z,52672.00
2022-10-08T11:02:02.062Z,4808.00
2022-10-08T11:03:02.090Z,5384.00
2022-10-08T11:04:02.071Z,4684.00
2022-10-08T11:05:02.356Z,4452.00
2022-10-08T11:06:01.994Z,5900.00
2022-10-08T11:07:01.982Z,61760.00
2022-10-08T11:08:01.961Z,11368.00
2022-10-08T11:09:01.980Z,29664.00
2022-10-08T11:10:01.943Z,52288.00
2022-10-08T11:11:01.925Z,14684.00
2022-10-08T11:12:01.936Z,48352.00
2022-10-08T11:13:01.892Z,82368.00
2022-10-08T11:14:01.912Z,86144.00
2022-10-08T11:15:01.862Z,89600.00
2022-10-08T11:16:01.918Z,91808.00
2022-10-08T11:17:01.847Z,89152.00
2022-10-08T11:18:01.833Z,82688.00
2022-10-08T11:19:01.818Z,81792.00
2022-10-08T11:20:01.815Z,80960.00
2022-10-08T11:21:01.794Z,85888.00
2022-10-08T11:22:01.785Z,88896.00
2022-10-08T11:23:01.766Z,83520.00
2022-10-08T11:24:01.775Z,82976.00
2022-10-08T11:25:01.740Z,83584.00
2022-10-08T11:27:02.715Z,80480.00
2022-10-08T11:28:01.727Z,73760.00
2022-10-08T11:29:01.698Z,70560.00
2022-10-08T11:30:01.679Z,69792.00
2022-10-08T11:31:01.696Z,72736.00
2022-10-08T11:32:01.649Z,79072.00
2022-10-08T11:33:01.629Z,80160.00
2022-10-08T11:34:01.634Z,87904.00
2022-10-08T11:35:01.609Z,89472.00
2022-10-08T11:36:01.590Z,84960.00
2022-10-08T11:37:01.579Z,89856.00
2022-10-08T11:38:01.570Z,87840.00
2022-10-08T11:39:01.562Z,87136.00
2022-10-08T11:40:01.533Z,94656.00
2022-10-08T11:41:01.532Z,85216.00
2022-10-08T11:42:01.513Z,92096.00
2022-10-08T11:43:01.501Z,91168.00
2022-10-08T11:44:01.503Z,88608.00
2022-10-08T11:45:01.464Z,83168.00
2022-10-08T11:46:01.505Z,87904.00
2022-10-08T11:47:01.444Z,89568.00
2022-10-08T11:48:01.435Z,85152.00
2022-10-08T11:49:01.434Z,90816.00
2022-10-08T11:50:01.440Z,83904.00
2022-10-08T11:51:01.386Z,96800.00
2022-10-08T11:52:01.376Z,94624.00
2022-10-08T11:53:01.368Z,83328.00
2022-10-08T11:54:01.370Z,92960.00
2022-10-08T11:55:01.341Z,91136.00
2022-10-08T11:56:01.327Z,82976.00
2022-10-08T11:57:01.318Z,91488.00
2022-10-08T11:58:09.334Z,93440.00
2022-10-08T11:59:02.309Z,88544.00
2022-10-08T12:00:07.831Z,96288.00
2022-10-08T12:01:02.260Z,98720.00
2022-10-08T12:02:01.289Z,96064.00
2022-10-08T12:03:01.358Z,95136.00
2022-10-08T12:04:01.272Z,98880.00
2022-10-08T12:05:01.214Z,61696.00
2022-10-08T12:06:01.205Z,76288.00
2022-10-08T12:07:01.182Z,66848.00
2022-10-08T12:08:01.174Z,93152.00
2022-10-08T12:09:01.172Z,90592.00
2022-10-08T12:10:01.158Z,87648.00
2022-10-08T12:11:01.135Z,60704.00
2022-10-08T12:12:01.124Z,26368.00
2022-10-08T12:13:01.112Z,32160.00
2022-10-08T12:14:01.118Z,70432.00
2022-10-08T12:15:01.076Z,85024.00
2022-10-08T12:16:01.119Z,87520.00
2022-10-08T12:17:01.157Z,85088.00
2022-10-08T12:18:01.057Z,21088.00
2022-10-08T12:19:01.057Z,83488.00
2022-10-08T12:20:01.017Z,9104.00
2022-10-08T12:21:01.004Z,82528.00
2022-10-08T12:22:00.998Z,78400.00
2022-10-08T12:23:00.979Z,53216.00
2022-10-08T12:24:00.978Z,85568.00
2022-10-08T12:25:00.949Z,62720.00
2022-10-08T12:26:00.948Z,75424.00
2022-10-08T12:27:00.937Z,40448.00
2022-10-08T12:28:01.002Z,34784.00
2022-10-08T12:29:00.922Z,36832.00
2022-10-08T12:30:00.928Z,55648.00
2022-10-08T12:31:01.017Z,56160.00
2022-10-08T12:32:00.870Z,49760.00
2022-10-08T12:33:00.864Z,27456.00
2022-10-08T12:34:00.861Z,24288.00
2022-10-08T12:35:00.823Z,41792.00
2022-10-08T12:36:00.817Z,48800.00
2022-10-08T12:37:02.023Z,44864.00
2022-10-08T12:38:00.790Z,33600.00
2022-10-08T12:39:00.788Z,24096.00